createdAt,value
2019-06-20T00:01:47.070Z,3.17
2019-06-20T00:04:17.094Z,3.30
2019-06-20T00:06:46.892Z,3.35
2019-06-20T00:09:19.186Z,3.67
2019-06-20T00:11:49.402Z,3.22
2019-06-20T00:14:19.537Z,3.08
2019-06-20T00:16:49.262Z,2.75
2019-06-20T00:19:19.258Z,3.40
2019-06-20T00:21:49.189Z,2.95
2019-06-20T00:24:19.674Z,6.92
2019-06-20T00:26:49.115Z,4.25
2019-06-20T00:29:18.828Z,3.67
2019-06-20T00:31:48.646Z,5.03
2019-06-20T00:34:18.873Z,3.27
2019-06-20T00:36:51.362Z,3.42
2019-06-20T00:39:20.948Z,4.35
2019-06-20T00:41:51.902Z,4.35
2019-06-20T00:44:21.793Z,4.80
2019-06-20T00:46:51.485Z,3.67
2019-06-20T00:49:21.457Z,3.70
2019-06-20T00:51:52.809Z,4.12
2019-06-20T00:54:25.590Z,4.25
2019-06-20T00:56:55.748Z,5.30
2019-06-20T00:59:25.615Z,4.00
2019-06-20T01:01:56.011Z,4.37
2019-06-20T01:04:25.685Z,3.73
2019-06-20T01:06:58.046Z,3.90
2019-06-20T01:09:28.577Z,3.97
2019-06-20T01:11:58.761Z,4.22
2019-06-20T01:14:28.631Z,5.33
2019-06-20T01:16:59.547Z,6.17
2019-06-20T01:19:29.823Z,6.05
2019-06-20T01:22:00.369Z,4.93
2019-06-20T01:24:30.263Z,4.67
2019-06-20T01:27:00.089Z,4.83
2019-06-20T01:29:30.390Z,4.67
2019-06-20T01:32:00.861Z,5.70
2019-06-20T01:34:30.692Z,4.92
2019-06-20T01:37:01.680Z,5.28
2019-06-20T01:39:32.022Z,4.72
2019-06-20T01:42:01.969Z,5.03
2019-06-20T01:44:32.985Z,5.60
2019-06-20T01:47:02.744Z,5.93
2019-06-20T01:49:32.645Z,5.08
2019-06-20T01:52:02.393Z,5.28
2019-06-20T01:54:32.847Z,4.47
2019-06-20T01:57:02.909Z,4.58
2019-06-20T01:59:32.840Z,5.22
2019-06-20T02:02:02.654Z,5.92
2019-06-20T02:04:33.181Z,5.15
2019-06-20T02:07:04.253Z,7.15
2019-06-20T02:09:34.617Z,5.15
2019-06-20T02:12:05.477Z,5.00
2019-06-20T02:14:36.402Z,4.87
2019-06-20T02:17:07.284Z,5.10
2019-06-20T02:19:37.596Z,4.62
2019-06-20T02:22:08.185Z,5.15
2019-06-20T02:24:38.014Z,5.50
2019-06-20T02:27:08.015Z,5.25
2019-06-20T02:29:37.998Z,5.53
2019-06-20T02:32:07.770Z,5.70
2019-06-20T02:34:37.701Z,5.33
2019-06-20T02:37:08.255Z,5.40
2019-06-20T02:39:38.051Z,5.05
2019-06-20T02:42:07.642Z,4.50
2019-06-20T02:44:38.097Z,5.30
2019-06-20T02:47:07.853Z,4.70
2019-06-20T02:49:38.081Z,5.33
2019-06-20T02:52:09.881Z,4.33
2019-06-20T02:54:41.010Z,5.03
2019-06-20T02:57:11.401Z,5.35
2019-06-20T02:59:42.209Z,5.33
2019-06-20T03:02:12.445Z,4.93
2019-06-20T03:04:45.668Z,4.37
2019-06-20T03:07:14.941Z,4.60
2019-06-20T03:09:45.694Z,4.40
2019-06-20T03:12:16.641Z,6.17
2019-06-20T03:14:46.400Z,3.95
2019-06-20T03:17:16.456Z,4.00
2019-06-20T03:19:46.160Z,4.05
2019-06-20T03:22:15.901Z,4.40
2019-06-20T03:24:45.637Z,3.95
2019-06-20T03:27:15.398Z,4.95
2019-06-20T03:29:45.730Z,7.25
2019-06-20T03:32:16.670Z,4.62
2019-06-20T03:34:47.053Z,3.83
2019-06-20T03:37:17.214Z,6.27
2019-06-20T03:39:47.669Z,4.85
2019-06-20T03:42:18.650Z,4.65
2019-06-20T03:45:01.747Z,4.35
2019-06-20T03:47:20.342Z,3.90
2019-06-20T03:49:50.830Z,3.72
2019-06-20T03:52:21.739Z,4.08
2019-06-20T03:54:51.725Z,5.15
2019-06-20T03:57:21.382Z,3.52
2019-06-20T03:59:52.998Z,5.17
2019-06-20T04:02:23.786Z,4.25
2019-06-20T04:04:53.685Z,4.20
2019-06-20T04:07:24.155Z,3.70
2019-06-20T04:09:55.068Z,4.58
2019-06-20T04:12:24.874Z,5.20
2019-06-20T04:14:54.597Z,4.78
2019-06-20T04:17:24.502Z,4.42
2019-06-20T04:19:54.418Z,4.83
2019-06-20T04:22:25.436Z,6.53
2019-06-20T04:24:55.765Z,3.90
2019-06-20T04:27:25.749Z,3.90
2019-06-20T04:29:56.993Z,4.47
2019-06-20T04:32:26.954Z,4.10
2019-06-20T04:34:56.657Z,7.03
2019-06-20T04:37:26.994Z,3.77
2019-06-20T04:39:56.812Z,4.12
2019-06-20T04:42:27.734Z,4.60
2019-06-20T04:45:00.708Z,6.58
2019-06-20T04:47:31.093Z,5.85
2019-06-20T04:50:02.465Z,4.35
2019-06-20T04:52:33.977Z,4.08
2019-06-20T04:55:03.793Z,4.10
2019-06-20T04:57:34.086Z,4.08
2019-06-20T05:00:04.485Z,4.85
2019-06-20T05:02:37.159Z,3.62
2019-06-20T05:05:10.674Z,4.47
2019-06-20T05:07:40.377Z,5.30
2019-06-20T05:10:10.472Z,3.83
2019-06-20T05:12:40.361Z,6.90
2019-06-20T05:15:11.093Z,4.25
2019-06-20T05:17:40.932Z,4.90
2019-06-20T05:20:11.342Z,5.65
2019-06-20T05:22:41.160Z,4.10
2019-06-20T05:25:12.117Z,3.65
2019-06-20T05:27:43.304Z,5.70
2019-06-20T05:30:14.196Z,4.08
2019-06-20T05:32:44.410Z,5.28
2019-06-20T05:35:15.590Z,3.92
2019-06-20T05:37:46.148Z,4.80
2019-06-20T05:40:18.903Z,4.45
2019-06-20T05:42:48.846Z,6.70
2019-06-20T05:45:18.972Z,5.33
2019-06-20T05:47:49.847Z,3.90
2019-06-20T05:50:22.648Z,4.97
2019-06-20T05:52:53.006Z,4.72
2019-06-20T05:55:22.948Z,5.17
2019-06-20T05:57:52.648Z,3.95
2019-06-20T06:00:22.400Z,6.08
2019-06-20T06:02:52.717Z,4.55
2019-06-20T06:05:22.756Z,4.20
2019-06-20T06:07:52.456Z,3.90
2019-06-20T06:10:24.505Z,5.37
2019-06-20T06:12:56.643Z,4.60
2019-06-20T06:15:27.753Z,5.25
2019-06-20T06:17:58.177Z,3.62
2019-06-20T06:20:27.874Z,3.35
2019-06-20T06:22:58.345Z,3.47
2019-06-20T06:25:28.180Z,5.20
2019-06-20T06:27:58.554Z,3.83
2019-06-20T06:30:29.653Z,7.03
2019-06-20T06:32:59.980Z,7.30
2019-06-20T06:35:29.680Z,4.83
2019-06-20T06:38:00.076Z,5.08
2019-06-20T06:40:29.936Z,3.20
2019-06-20T06:42:59.793Z,4.53
2019-06-20T06:45:30.245Z,3.58
2019-06-20T06:48:00.166Z,5.20
2019-06-20T06:50:29.944Z,4.62
2019-06-20T06:52:59.869Z,3.58
2019-06-20T06:55:29.761Z,3.20
2019-06-20T06:57:59.440Z,3.40
2019-06-20T07:00:29.934Z,3.17
2019-06-20T07:02:59.851Z,4.08
2019-06-20T07:05:29.525Z,3.52
2019-06-20T07:07:59.890Z,2.92
2019-06-20T07:10:29.893Z,3.22
2019-06-20T07:13:00.317Z,3.17
2019-06-20T07:15:30.446Z,2.83
2019-06-20T07:18:00.417Z,6.70
2019-06-20T07:20:30.206Z,3.75
2019-06-20T07:23:00.625Z,3.10
2019-06-20T07:25:31.533Z,3.10
2019-06-20T07:28:01.290Z,3.05
2019-06-20T07:30:31.008Z,5.00
2019-06-20T07:33:00.825Z,4.25
2019-06-20T07:35:30.841Z,5.40
2019-06-20T07:38:00.648Z,2.90
2019-06-20T07:40:33.033Z,3.02
2019-06-20T07:43:03.957Z,3.45
2019-06-20T07:45:34.673Z,4.35
2019-06-20T07:48:05.019Z,4.20
2019-06-20T07:50:34.813Z,3.12
2019-06-20T07:53:05.537Z,4.55
2019-06-20T07:55:35.501Z,4.08
2019-06-20T07:58:06.517Z,3.90
2019-06-20T08:00:37.139Z,4.08
2019-06-20T08:03:08.037Z,4.33
2019-06-20T08:05:38.591Z,4.90
2019-06-20T08:08:09.014Z,3.85
2019-06-20T08:10:41.091Z,3.87
2019-06-20T08:13:10.916Z,5.37
2019-06-20T08:15:41.106Z,4.67
2019-06-20T08:18:11.474Z,3.22
2019-06-20T08:20:41.105Z,3.33
2019-06-20T08:23:11.346Z,6.75
2019-06-20T08:25:43.349Z,3.08
2019-06-20T08:28:14.425Z,2.58
2019-06-20T08:30:45.470Z,4.60
2019-06-20T08:33:16.053Z,3.35
2019-06-20T08:35:45.767Z,3.80
2019-06-20T08:38:15.783Z,2.95
2019-06-20T08:40:46.138Z,4.12
2019-06-20T08:43:16.578Z,4.87
2019-06-20T08:45:47.837Z,5.60
2019-06-20T08:48:19.375Z,3.30
2019-06-20T08:50:49.269Z,3.00
2019-06-20T08:53:20.004Z,3.77
2019-06-20T08:55:50.457Z,3.30
2019-06-20T08:58:21.941Z,4.10
2019-06-20T09:00:55.468Z,3.85
2019-06-20T09:03:25.211Z,3.90
2019-06-20T09:05:56.625Z,3.47
2019-06-20T09:08:27.517Z,2.80
2019-06-20T09:10:59.482Z,4.42
2019-06-20T09:13:29.918Z,3.95
2019-06-20T09:16:00.831Z,3.55
2019-06-20T09:18:31.479Z,3.30
2019-06-20T09:21:02.135Z,5.87
2019-06-20T09:23:31.889Z,3.90
2019-06-20T09:26:01.998Z,6.42
2019-06-20T09:28:31.969Z,3.83
2019-06-20T09:31:04.002Z,5.75
2019-06-20T09:33:34.464Z,5.00
2019-06-20T09:36:04.989Z,4.35
2019-06-20T09:38:35.181Z,5.80
2019-06-20T09:41:06.068Z,5.10
2019-06-20T09:43:37.498Z,3.80
2019-06-20T09:46:08.409Z,7.15
2019-06-20T09:48:39.049Z,3.55
2019-06-20T09:51:11.253Z,3.40
2019-06-20T09:53:44.249Z,4.42
2019-06-20T09:56:16.614Z,4.03
2019-06-20T09:58:48.313Z,6.33
2019-06-20T10:01:18.783Z,4.10
2019-06-20T10:03:49.011Z,4.22
2019-06-20T10:06:20.456Z,6.87
2019-06-20T10:08:52.279Z,4.75
2019-06-20T10:11:22.901Z,4.55
2019-06-20T10:13:54.274Z,6.33
2019-06-20T10:16:24.512Z,5.65
2019-06-20T10:18:54.395Z,4.08
2019-06-20T10:21:24.456Z,4.78
2019-06-20T10:23:54.357Z,4.33
2019-06-20T10:26:24.010Z,5.72
2019-06-20T10:28:54.941Z,5.03
2019-06-20T10:31:25.485Z,3.47
2019-06-20T10:33:55.165Z,7.45
2019-06-20T10:36:27.020Z,5.95
2019-06-20T10:38:58.971Z,4.05
2019-06-20T10:41:29.428Z,4.75
2019-06-20T10:44:00.640Z,5.42
2019-06-20T10:46:30.917Z,6.53
2019-06-20T10:49:01.235Z,3.72
2019-06-20T10:51:44.106Z,5.62
2019-06-20T10:54:16.111Z,5.78
2019-06-20T10:56:47.027Z,4.55
2019-06-20T10:59:16.997Z,6.62
2019-06-20T11:01:48.257Z,4.22
2019-06-20T11:04:18.300Z,7.28
2019-06-20T11:06:49.557Z,6.95
2019-06-20T11:09:19.572Z,4.47
2019-06-20T11:11:50.101Z,6.83
2019-06-20T11:14:19.841Z,6.20
2019-06-20T11:16:49.729Z,4.67
2019-06-20T11:19:20.241Z,5.62
2019-06-20T11:21:50.681Z,6.37
2019-06-20T11:24:24.110Z,4.12
2019-06-20T11:26:54.120Z,3.90
2019-06-20T11:29:23.889Z,4.85
2019-06-20T11:31:53.983Z,5.45
2019-06-20T11:34:24.627Z,4.67
2019-06-20T11:36:55.576Z,5.58
2019-06-20T11:39:25.777Z,4.58
2019-06-20T11:41:56.641Z,3.77
2019-06-20T11:44:26.301Z,4.33
2019-06-20T11:46:57.959Z,4.62
2019-06-20T11:49:28.395Z,6.50
2019-06-20T11:51:58.708Z,6.10
2019-06-20T11:54:29.101Z,4.30
2019-06-20T11:56:58.970Z,4.45
2019-06-20T11:59:28.884Z,4.85
2019-06-20T12:01:58.662Z,5.92
2019-06-20T12:04:28.932Z,4.55
2019-06-20T12:06:59.329Z,4.30
2019-06-20T12:09:29.078Z,7.12
2019-06-20T12:11:59.585Z,4.33
2019-06-20T12:14:29.121Z,5.78
2019-06-20T12:16:59.110Z,5.47
2019-06-20T12:19:32.786Z,5.42
2019-06-20T12:22:04.344Z,6.20
2019-06-20T12:24:34.709Z,4.83
2019-06-20T12:27:05.154Z,8.90
2019-06-20T12:29:34.876Z,5.37
2019-06-20T12:32:04.769Z,5.87
2019-06-20T12:34:35.624Z,5.22
2019-06-20T12:37:05.137Z,7.95
2019-06-20T12:39:35.427Z,5.65
2019-06-20T12:42:06.484Z,5.53
2019-06-20T12:44:38.448Z,5.55
2019-06-20T12:47:08.890Z,7.80
2019-06-20T12:49:41.698Z,5.90
2019-06-20T12:52:12.213Z,5.03
2019-06-20T12:54:43.317Z,6.70
2019-06-20T12:57:13.320Z,6.37
2019-06-20T12:59:44.616Z,8.78
2019-06-20T13:02:14.704Z,6.03
2019-06-20T13:04:44.428Z,9.05
2019-06-20T13:07:14.896Z,10.08
2019-06-20T13:09:46.304Z,5.62
2019-06-20T13:12:16.179Z,6.92
2019-06-20T13:14:45.723Z,5.60
2019-06-20T13:17:18.726Z,5.37
2019-06-20T13:19:49.105Z,6.37
2019-06-20T13:22:19.025Z,7.05
2019-06-20T13:24:49.596Z,8.40
2019-06-20T13:27:19.384Z,5.50
2019-06-20T13:29:49.484Z,6.72
2019-06-20T13:32:19.174Z,5.80
2019-06-20T13:34:48.974Z,8.53
2019-06-20T13:37:18.342Z,7.53
2019-06-20T13:39:50.214Z,8.43
2019-06-20T13:42:20.164Z,9.18
2019-06-20T13:44:50.711Z,9.93
2019-06-20T13:47:20.652Z,7.67
2019-06-20T13:49:50.473Z,9.15
2019-06-20T13:52:20.106Z,9.75
2019-06-20T13:54:50.142Z,8.00
2019-06-20T13:57:20.003Z,9.13
2019-06-20T13:59:52.726Z,8.53
2019-06-20T14:02:21.317Z,11.15
2019-06-20T14:04:51.632Z,7.58
2019-06-20T14:07:22.646Z,7.62
2019-06-20T14:09:52.047Z,8.18
2019-06-20T14:12:22.900Z,9.30
2019-06-20T14:14:52.341Z,7.97
2019-06-20T14:17:22.063Z,9.40
2019-06-20T14:19:51.980Z,10.03
2019-06-20T14:22:22.533Z,7.83
2019-06-20T14:24:53.704Z,10.03
2019-06-20T14:27:23.488Z,8.28
2019-06-20T14:29:53.277Z,8.03
2019-06-20T14:32:22.708Z,12.00
2019-06-20T14:34:52.592Z,8.15
2019-06-20T14:37:23.007Z,7.95
2019-06-20T14:39:52.736Z,8.03
2019-06-20T14:42:22.497Z,9.35
2019-06-20T14:44:54.014Z,9.65
2019-06-20T14:47:25.238Z,9.33
2019-06-20T14:49:55.745Z,10.38
2019-06-20T14:52:25.509Z,9.88
2019-06-20T14:54:56.012Z,10.40
2019-06-20T14:57:25.995Z,11.75
2019-06-20T14:59:56.448Z,10.03
2019-06-20T15:02:37.976Z,11.30
2019-06-20T15:04:57.675Z,10.68
2019-06-20T15:07:28.121Z,10.50
2019-06-20T15:09:57.956Z,11.08
2019-06-20T15:12:29.048Z,10.53
2019-06-20T15:14:59.417Z,11.90
2019-06-20T15:17:29.606Z,10.68
2019-06-20T15:19:59.373Z,10.03
2019-06-20T15:22:29.690Z,11.12
2019-06-20T15:24:59.401Z,10.08
2019-06-20T15:27:30.109Z,11.78
2019-06-20T15:29:59.833Z,10.82
2019-06-20T15:32:30.034Z,9.93
2019-06-20T15:35:01.844Z,10.15
2019-06-20T15:37:31.940Z,9.75
2019-06-20T15:40:02.015Z,9.38
2019-06-20T15:42:31.805Z,9.50
2019-06-20T15:45:02.763Z,10.20
2019-06-20T15:47:33.551Z,10.93
2019-06-20T15:50:03.860Z,9.38
2019-06-20T15:52:34.268Z,9.63
2019-06-20T15:55:04.161Z,9.25
2019-06-20T15:57:34.557Z,11.88
2019-06-20T16:00:04.502Z,9.43
2019-06-20T16:02:35.918Z,9.60
2019-06-20T16:05:07.057Z,8.10
2019-06-20T16:07:37.593Z,8.95
2019-06-20T16:10:07.710Z,9.18
2019-06-20T16:12:37.507Z,8.88
2019-06-20T16:15:07.788Z,8.38
2019-06-20T16:17:39.567Z,14.10
2019-06-20T16:20:12.974Z,7.92
2019-06-20T16:22:44.464Z,7.00
2019-06-20T16:25:15.066Z,8.93
2019-06-20T16:27:45.660Z,8.10
2019-06-20T16:30:15.894Z,6.53
2019-06-20T16:32:45.779Z,6.00
2019-06-20T16:35:16.884Z,6.12
2019-06-20T16:37:46.997Z,5.85
2019-06-20T16:40:16.932Z,5.62
2019-06-20T16:42:47.354Z,5.00
2019-06-20T16:45:18.421Z,5.53
2019-06-20T16:47:48.164Z,5.15
2019-06-20T16:50:19.410Z,4.70
2019-06-20T16:52:49.915Z,5.80
2019-06-20T16:55:20.284Z,5.50
2019-06-20T16:57:50.280Z,6.08
2019-06-20T17:00:20.829Z,5.42
2019-06-20T17:02:51.195Z,5.37
2019-06-20T17:05:21.320Z,4.75
2019-06-20T17:07:51.694Z,4.50
2019-06-20T17:10:22.488Z,5.28
2019-06-20T17:12:52.430Z,5.10
2019-06-20T17:15:22.489Z,4.80
2019-06-20T17:17:52.884Z,4.95
2019-06-20T17:20:26.533Z,4.47
2019-06-20T17:22:57.013Z,4.87
2019-06-20T17:25:27.402Z,4.83
2019-06-20T17:27:57.899Z,4.15
2019-06-20T17:30:27.905Z,4.97
2019-06-20T17:32:57.856Z,4.80
2019-06-20T17:35:27.739Z,4.28
2019-06-20T17:37:57.476Z,5.55
2019-06-20T17:40:28.565Z,4.60
2019-06-20T17:42:58.129Z,5.25
2019-06-20T17:45:29.548Z,5.15
2019-06-20T17:47:58.965Z,4.58
2019-06-20T17:50:28.673Z,5.22
2019-06-20T17:52:58.622Z,4.72
2019-06-20T17:55:29.642Z,4.87
2019-06-20T17:57:59.441Z,4.10
2019-06-20T18:00:29.080Z,4.85
2019-06-20T18:02:58.705Z,4.60
2019-06-20T18:05:29.072Z,4.62
2019-06-20T18:08:14.084Z,4.70
2019-06-20T18:10:35.519Z,4.62
2019-06-20T18:13:05.541Z,5.17
2019-06-20T18:15:36.009Z,4.72
2019-06-20T18:18:06.094Z,6.42
2019-06-20T18:20:36.112Z,6.97
2019-06-20T18:23:05.833Z,8.00
2019-06-20T18:25:35.540Z,7.72
2019-06-20T18:28:06.065Z,7.97
2019-06-20T18:30:39.583Z,7.37
2019-06-20T18:33:09.607Z,8.45
2019-06-20T18:35:39.489Z,8.15
2019-06-20T18:38:10.097Z,9.90
2019-06-20T18:40:40.568Z,7.85
2019-06-20T18:43:10.801Z,8.00
2019-06-20T18:45:42.017Z,9.13
2019-06-20T18:48:13.704Z,8.65
2019-06-20T18:50:44.152Z,9.03
2019-06-20T18:53:13.789Z,8.33
2019-06-20T18:55:45.299Z,8.80
2019-06-20T18:58:16.239Z,9.23
2019-06-20T19:00:47.253Z,10.08
2019-06-20T19:03:17.116Z,8.43
2019-06-20T19:05:49.674Z,8.95
2019-06-20T19:08:20.187Z,8.63
2019-06-20T19:10:49.609Z,10.03
2019-06-20T19:13:19.212Z,11.03
2019-06-20T19:15:49.161Z,9.18
2019-06-20T19:18:23.035Z,9.00
2019-06-20T19:20:51.805Z,8.25
2019-06-20T19:23:22.089Z,9.38
2019-06-20T19:25:53.913Z,8.93
2019-06-20T19:28:23.765Z,9.45
2019-06-20T19:30:54.029Z,8.98
2019-06-20T19:33:24.285Z,10.32
2019-06-20T19:35:54.630Z,10.28
2019-06-20T19:38:25.007Z,11.50
2019-06-20T19:40:55.279Z,10.75
2019-06-20T19:43:25.229Z,10.60
2019-06-20T19:45:55.265Z,12.45
2019-06-20T19:48:25.508Z,11.50
2019-06-20T19:50:55.386Z,10.88
2019-06-20T19:53:25.322Z,9.53
2019-06-20T19:55:55.329Z,10.28
2019-06-20T19:58:26.426Z,12.37
2019-06-20T20:00:57.365Z,14.00
2019-06-20T20:03:27.266Z,9.55
2019-06-20T20:05:58.604Z,11.60
2019-06-20T20:08:29.702Z,10.03
2019-06-20T20:11:02.697Z,11.38
2019-06-20T20:13:33.122Z,10.90
2019-06-20T20:16:04.097Z,11.88
2019-06-20T20:18:33.952Z,12.23
2019-06-20T20:21:03.730Z,11.57
2019-06-20T20:23:34.237Z,9.98
2019-06-20T20:26:03.980Z,9.70
2019-06-20T20:28:35.361Z,11.08
2019-06-20T20:31:05.818Z,10.03
2019-06-20T20:33:35.797Z,10.58
2019-06-20T20:36:05.612Z,10.43
2019-06-20T20:38:35.200Z,10.78
2019-06-20T20:41:04.895Z,9.68
2019-06-20T20:43:34.629Z,10.40
2019-06-20T20:46:05.116Z,9.90
2019-06-20T20:48:34.777Z,10.75
2019-06-20T20:51:05.120Z,10.85
2019-06-20T20:53:35.552Z,11.08
2019-06-20T20:56:05.569Z,10.70
2019-06-20T20:58:36.443Z,10.30
2019-06-20T21:01:16.491Z,11.28
2019-06-20T21:03:47.510Z,10.32
2019-06-20T21:06:19.793Z,10.60
2019-06-20T21:08:50.265Z,10.63
2019-06-20T21:11:20.135Z,11.30
2019-06-20T21:13:51.643Z,10.60
2019-06-20T21:16:22.143Z,11.05
2019-06-20T21:18:52.428Z,10.95
2019-06-20T21:21:22.750Z,11.73
2019-06-20T21:23:52.789Z,11.18
2019-06-20T21:26:23.240Z,10.38
2019-06-20T21:28:53.021Z,11.00
2019-06-20T21:31:22.787Z,12.63
2019-06-20T21:33:54.666Z,11.45
2019-06-20T21:36:24.722Z,13.00
2019-06-20T21:38:55.132Z,11.97
2019-06-20T21:41:25.546Z,11.85
2019-06-20T21:43:55.469Z,11.93
2019-06-20T21:46:26.389Z,12.25
2019-06-20T21:48:57.246Z,12.23
2019-06-20T21:51:27.625Z,11.25
2019-06-20T21:53:58.614Z,12.20
2019-06-20T21:56:28.289Z,11.83
2019-06-20T21:58:59.608Z,13.93
2019-06-20T22:01:29.932Z,11.73
2019-06-20T22:04:00.305Z,12.07
2019-06-20T22:06:30.886Z,11.43
2019-06-20T22:09:01.337Z,11.93
2019-06-20T22:11:33.509Z,12.43
2019-06-20T22:14:03.461Z,11.73
2019-06-20T22:16:33.266Z,11.35
2019-06-20T22:19:07.634Z,11.83
2019-06-20T22:21:38.568Z,11.90
2019-06-20T22:24:09.449Z,12.43
2019-06-20T22:26:39.229Z,11.03
2019-06-20T22:29:09.576Z,11.95
2019-06-20T22:31:41.949Z,12.35
2019-06-20T22:34:12.357Z,14.05
2019-06-20T22:36:43.289Z,12.78
2019-06-20T22:39:13.604Z,16.45
2019-06-20T22:41:44.065Z,13.25
2019-06-20T22:44:13.897Z,14.65
2019-06-20T22:46:43.923Z,13.58
2019-06-20T22:49:13.708Z,13.38
2019-06-20T22:51:44.167Z,13.43
2019-06-20T22:54:15.776Z,13.45
2019-06-20T22:56:46.106Z,14.18
2019-06-20T22:59:16.280Z,14.65
2019-06-20T23:01:46.109Z,13.18
2019-06-20T23:04:17.557Z,14.50
2019-06-20T23:06:55.957Z,13.32
2019-06-20T23:09:21.317Z,13.00
2019-06-20T23:11:51.762Z,13.45
2019-06-20T23:14:21.730Z,12.70
2019-06-20T23:16:52.280Z,11.57
2019-06-20T23:19:22.548Z,11.85
2019-06-20T23:21:52.985Z,10.65
2019-06-20T23:24:22.632Z,11.50
2019-06-20T23:26:53.141Z,10.90
2019-06-20T23:29:26.249Z,11.10
2019-06-20T23:31:55.968Z,11.60
2019-06-20T23:34:25.981Z,9.93
2019-06-20T23:37:11.715Z,9.50
2019-06-20T23:39:29.552Z,10.72
2019-06-20T23:41:59.556Z,8.65
2019-06-20T23:44:29.320Z,9.05
2019-06-20T23:46:58.916Z,9.83
2019-06-20T23:49:29.936Z,9.13
2019-06-20T23:52:05.544Z,9.50
2019-06-20T23:54:35.261Z,9.43
2019-06-20T23:57:05.179Z,9.25
2019-06-20T23:59:34.896Z,9.95
